sensor_id;sensor_type;location;lat;lon;timestamp;P1;durP1;ratioP1;P2;durP2;ratioP2
55879;SDS011;41802;51.564;-1.838;2023-03-17T00:00:24;7.68;;;2.38;;
55879;SDS011;41802;51.564;-1.838;2023-03-17T00:02:53;7.65;;;2.75;;
55879;SDS011;41802;51.564;-1.838;2023-03-17T00:05:29;7.23;;;2.80;;
55879;SDS011;41802;51.564;-1.838;2023-03-17T00:07:58;6.00;;;1.90;;
55879;SDS011;41802;51.564;-1.838;2023-03-17T00:10:27;6.00;;;2.20;;
55879;SDS011;41802;51.564;-1.838;2023-03-17T00:12:55;7.78;;;2.30;;
55879;SDS011;41802;51.564;-1.838;2023-03-17T00:15:24;7.43;;;1.92;;
55879;SDS011;41802;51.564;-1.838;2023-03-17T00:17:52;6.57;;;1.97;;
55879;SDS011;41802;51.564;-1.838;2023-03-17T00:20:24;5.32;;;1.45;;
55879;SDS011;41802;51.564;-1.838;2023-03-17T00:22:55;5.57;;;1.33;;
55879;SDS011;41802;51.564;-1.838;2023-03-17T00:25:26;5.03;;;1.60;;
55879;SDS011;41802;51.564;-1.838;2023-03-17T00:27:55;5.45;;;1.55;;
55879;SDS011;41802;51.564;-1.838;2023-03-17T00:30:23;4.77;;;1.40;;
55879;SDS011;41802;51.564;-1.838;2023-03-17T00:32:52;4.97;;;1.30;;
55879;SDS011;41802;51.564;-1.838;2023-03-17T00:35:22;4.20;;;1.00;;
55879;SDS011;41802;51.564;-1.838;2023-03-17T00:37:51;5.32;;;1.60;;
55879;SDS011;41802;51.564;-1.838;2023-03-17T00:40:21;4.50;;;1.20;;
55879;SDS011;41802;51.564;-1.838;2023-03-17T00:42:50;4.87;;;1.33;;
55879;SDS011;41802;51.564;-1.838;2023-03-17T00:45:18;5.72;;;1.60;;
55879;SDS011;41802;51.564;-1.838;2023-03-17T00:47:48;5.20;;;1.60;;
55879;SDS011;41802;51.564;-1.838;2023-03-17T00:50:17;5.32;;;1.38;;
55879;SDS011;41802;51.564;-1.838;2023-03-17T00:52:47;5.18;;;1.70;;
55879;SDS011;41802;51.564;-1.838;2023-03-17T00:55:17;6.00;;;1.67;;
55879;SDS011;41802;51.564;-1.838;2023-03-17T00:57:48;5.05;;;1.52;;
55879;SDS011;41802;51.564;-1.838;2023-03-17T01:00:18;6.43;;;1.60;;
55879;SDS011;41802;51.564;-1.838;2023-03-17T01:02:46;6.47;;;1.40;;
55879;SDS011;41802;51.564;-1.838;2023-03-17T01:05:14;6.30;;;1.55;;
55879;SDS011;41802;51.564;-1.838;2023-03-17T01:07:43;6.03;;;1.57;;
55879;SDS011;41802;51.564;-1.838;2023-03-17T01:10:19;5.45;;;1.52;;
55879;SDS011;41802;51.564;-1.838;2023-03-17T01:12:49;5.25;;;1.20;;
55879;SDS011;41802;51.564;-1.838;2023-03-17T01:15:17;4.75;;;1.13;;
55879;SDS011;41802;51.564;-1.838;2023-03-17T01:17:45;5.50;;;1.33;;
55879;SDS011;41802;51.564;-1.838;2023-03-17T01:20:14;6.97;;;1.20;;
55879;SDS011;41802;51.564;-1.838;2023-03-17T01:22:42;5.57;;;1.27;;
55879;SDS011;41802;51.564;-1.838;2023-03-17T01:25:11;8.80;;;1.35;;
55879;SDS011;41802;51.564;-1.838;2023-03-17T01:27:39;5.93;;;1.30;;
55879;SDS011;41802;51.564;-1.838;2023-03-17T01:30:11;5.43;;;1.30;;
55879;SDS011;41802;51.564;-1.838;2023-03-17T01:32:47;4.93;;;1.03;;
55879;SDS011;41802;51.564;-1.838;2023-03-17T01:35:15;5.18;;;1.05;;
55879;SDS011;41802;51.564;-1.838;2023-03-17T01:37:43;4.38;;;1.10;;
55879;SDS011;41802;51.564;-1.838;2023-03-17T01:40:13;6.15;;;1.30;;
55879;SDS011;41802;51.564;-1.838;2023-03-17T01:42:41;6.25;;;1.05;;
55879;SDS011;41802;51.564;-1.838;2023-03-17T01:47:54;7.30;;;1.30;;
55879;SDS011;41802;51.564;-1.838;2023-03-17T01:50:23;6.18;;;0.90;;
55879;SDS011;41802;51.564;-1.838;2023-03-17T01:52:51;5.30;;;0.90;;
55879;SDS011;41802;51.564;-1.838;2023-03-17T01:55:19;5.82;;;1.25;;
55879;SDS011;41802;51.564;-1.838;2023-03-17T01:57:50;6.90;;;1.37;;
55879;SDS011;41802;51.564;-1.838;2023-03-17T02:00:20;5.22;;;0.95;;
55879;SDS011;41802;51.564;-1.838;2023-03-17T02:02:49;5.57;;;1.25;;
55879;SDS011;41802;51.564;-1.838;2023-03-17T02:05:19;6.88;;;1.27;;
55879;SDS011;41802;51.564;-1.838;2023-03-17T02:07:47;6.65;;;0.73;;
55879;SDS011;41802;51.564;-1.838;2023-03-17T02:10:16;4.17;;;0.90;;
55879;SDS011;41802;51.564;-1.838;2023-03-17T02:12:46;6.22;;;1.42;;
55879;SDS011;41802;51.564;-1.838;2023-03-17T02:15:14;5.15;;;1.20;;
55879;SDS011;41802;51.564;-1.838;2023-03-17T02:17:42;8.02;;;1.45;;
55879;SDS011;41802;51.564;-1.838;2023-03-17T02:23:05;4.90;;;1.20;;
55879;SDS011;41802;51.564;-1.838;2023-03-17T02:25:33;6.38;;;1.25;;
55879;SDS011;41802;51.564;-1.838;2023-03-17T02:28:04;3.80;;;0.80;;
55879;SDS011;41802;51.564;-1.838;2023-03-17T02:30:33;7.30;;;1.30;;
55879;SDS011;41802;51.564;-1.838;2023-03-17T02:33:01;4.65;;;1.17;;
55879;SDS011;41802;51.564;-1.838;2023-03-17T02:35:29;5.83;;;1.10;;
55879;SDS011;41802;51.564;-1.838;2023-03-17T02:37:57;5.50;;;1.15;;
55879;SDS011;41802;51.564;-1.838;2023-03-17T02:40:26;5.13;;;1.10;;
55879;SDS011;41802;51.564;-1.838;2023-03-17T02:42:54;7.25;;;1.70;;
55879;SDS011;41802;51.564;-1.838;2023-03-17T02:45:22;8.05;;;1.30;;
55879;SDS011;41802;51.564;-1.838;2023-03-17T02:47:49;7.40;;;1.40;;
55879;SDS011;41802;51.564;-1.838;2023-03-17T02:50:18;5.78;;;1.30;;
55879;SDS011;41802;51.564;-1.838;2023-03-17T02:52:46;4.78;;;0.88;;
55879;SDS011;41802;51.564;-1.838;2023-03-17T02:55:14;5.93;;;1.40;;
55879;SDS011;41802;51.564;-1.838;2023-03-17T02:57:43;6.65;;;1.60;;
55879;SDS011;41802;51.564;-1.838;2023-03-17T03:00:11;6.40;;;1.63;;
55879;SDS011;41802;51.564;-1.838;2023-03-17T03:02:40;5.93;;;1.40;;
55879;SDS011;41802;51.564;-1.838;2023-03-17T03:05:08;5.25;;;1.13;;
55879;SDS011;41802;51.564;-1.838;2023-03-17T03:07:36;6.30;;;1.35;;
55879;SDS011;41802;51.564;-1.838;2023-03-17T03:10:04;6.57;;;1.27;;
55879;SDS011;41802;51.564;-1.838;2023-03-17T03:12:32;5.27;;;1.37;;
55879;SDS011;41802;51.564;-1.838;2023-03-17T03:15:01;4.43;;;1.08;;
55879;SDS011;41802;51.564;-1.838;2023-03-17T03:17:29;6.45;;;1.33;;
55879;SDS011;41802;51.564;-1.838;2023-03-17T03:19:56;8.43;;;1.50;;
55879;SDS011;41802;51.564;-1.838;2023-03-17T03:22:24;5.57;;;0.98;;
55879;SDS011;41802;51.564;-1.838;2023-03-17T03:24:52;5.73;;;1.07;;
55879;SDS011;41802;51.564;-1.838;2023-03-17T03:27:20;6.90;;;1.27;;
55879;SDS011;41802;51.564;-1.838;2023-03-17T03:29:47;5.82;;;1.40;;
55879;SDS011;41802;51.564;-1.838;2023-03-17T03:32:16;5.93;;;1.30;;
55879;SDS011;41802;51.564;-1.838;2023-03-17T03:34:44;6.90;;;1.10;;
55879;SDS011;41802;51.564;-1.838;2023-03-17T03:37:12;5.80;;;1.23;;
55879;SDS011;41802;51.564;-1.838;2023-03-17T03:39:40;4.38;;;1.25;;
55879;SDS011;41802;51.564;-1.838;2023-03-17T03:42:07;5.55;;;1.20;;
55879;SDS011;41802;51.564;-1.838;2023-03-17T03:44:35;5.03;;;1.52;;
55879;SDS011;41802;51.564;-1.838;2023-03-17T03:47:03;3.80;;;0.88;;
55879;SDS011;41802;51.564;-1.838;2023-03-17T03:49:34;6.27;;;1.23;;
55879;SDS011;41802;51.564;-1.838;2023-03-17T03:52:01;5.75;;;1.40;;
55879;SDS011;41802;51.564;-1.838;2023-03-17T03:54:29;5.57;;;1.42;;
55879;SDS011;41802;51.564;-1.838;2023-03-17T03:56:56;8.05;;;1.25;;
55879;SDS011;41802;51.564;-1.838;2023-03-17T03:59:24;4.43;;;1.17;;
55879;SDS011;41802;51.564;-1.838;2023-03-17T04:01:52;5.67;;;1.30;;
55879;SDS011;41802;51.564;-1.838;2023-03-17T04:04:20;4.78;;;1.20;;
55879;SDS011;41802;51.564;-1.838;2023-03-17T04:06:49;5.63;;;1.00;;
55879;SDS011;41802;51.564;-1.838;2023-03-17T04:09:17;5.53;;;1.13;;
55879;SDS011;41802;51.564;-1.838;2023-03-17T04:11:44;5.88;;;1.13;;
55879;SDS011;41802;51.564;-1.838;2023-03-17T04:14:12;7.20;;;1.50;;
55879;SDS011;41802;51.564;-1.838;2023-03-17T04:16:40;6.93;;;1.88;;
55879;SDS011;41802;51.564;-1.838;2023-03-17T04:19:08;6.38;;;1.42;;
55879;SDS011;41802;51.564;-1.838;2023-03-17T04:21:36;4.82;;;1.30;;
55879;SDS011;41802;51.564;-1.838;2023-03-17T04:24:07;7.75;;;1.60;;
55879;SDS011;41802;51.564;-1.838;2023-03-17T04:26:34;4.57;;;1.20;;
55879;SDS011;41802;51.564;-1.838;2023-03-17T04:29:02;7.60;;;1.35;;
55879;SDS011;41802;51.564;-1.838;2023-03-17T04:31:31;7.32;;;1.27;;
55879;SDS011;41802;51.564;-1.838;2023-03-17T04:33:58;4.43;;;1.08;;
55879;SDS011;41802;51.564;-1.838;2023-03-17T04:36:26;5.57;;;1.20;;
55879;SDS011;41802;51.564;-1.838;2023-03-17T04:38:54;5.00;;;1.33;;
55879;SDS011;41802;51.564;-1.838;2023-03-17T04:41:23;6.90;;;1.25;;
55879;SDS011;41802;51.564;-1.838;2023-03-17T04:43:51;6.32;;;1.33;;
55879;SDS011;41802;51.564;-1.838;2023-03-17T04:46:18;6.57;;;1.20;;
55879;SDS011;41802;51.564;-1.838;2023-03-17T04:48:46;8.85;;;1.58;;
55879;SDS011;41802;51.564;-1.838;2023-03-17T04:51:14;7.03;;;1.13;;
55879;SDS011;41802;51.564;-1.838;2023-03-17T04:53:42;5.93;;;1.05;;
55879;SDS011;41802;51.564;-1.838;2023-03-17T04:56:10;4.80;;;1.10;;
55879;SDS011;41802;51.564;-1.838;2023-03-17T04:58:39;4.05;;;1.10;;
55879;SDS011;41802;51.564;-1.838;2023-03-17T05:01:07;5.07;;;0.80;;
55879;SDS011;41802;51.564;-1.838;2023-03-17T05:03:35;6.00;;;1.23;;
55879;SDS011;41802;51.564;-1.838;2023-03-17T05:06:03;4.63;;;1.00;;
55879;SDS011;41802;51.564;-1.838;2023-03-17T05:08:31;5.47;;;1.63;;
55879;SDS011;41802;51.564;-1.838;2023-03-17T05:10:59;9.23;;;1.45;;
55879;SDS011;41802;51.564;-1.838;2023-03-17T05:13:26;7.72;;;1.20;;
55879;SDS011;41802;51.564;-1.838;2023-03-17T05:16:01;5.03;;;1.03;;
55879;SDS011;41802;51.564;-1.838;2023-03-17T05:18:29;4.72;;;1.10;;
55879;SDS011;41802;51.564;-1.838;2023-03-17T05:20:57;7.93;;;1.52;;
55879;SDS011;41802;51.564;-1.838;2023-03-17T05:23:24;6.82;;;0.95;;
55879;SDS011;41802;51.564;-1.838;2023-03-17T05:25:52;5.40;;;0.80;;
55879;SDS011;41802;51.564;-1.838;2023-03-17T05:28:20;6.60;;;0.90;;
55879;SDS011;41802;51.564;-1.838;2023-03-17T05:30:47;6.53;;;1.00;;
55879;SDS011;41802;51.564;-1.838;2023-03-17T05:33:18;6.63;;;1.05;;
55879;SDS011;41802;51.564;-1.838;2023-03-17T05:35:47;8.73;;;1.00;;
55879;SDS011;41802;51.564;-1.838;2023-03-17T05:38:14;7.78;;;1.42;;
55879;SDS011;41802;51.564;-1.838;2023-03-17T05:40:42;8.67;;;1.40;;
55879;SDS011;41802;51.564;-1.838;2023-03-17T05:43:10;7.45;;;1.20;;
55879;SDS011;41802;51.564;-1.838;2023-03-17T05:45:37;6.72;;;1.27;;
55879;SDS011;41802;51.564;-1.838;2023-03-17T05:48:05;8.02;;;1.20;;
55879;SDS011;41802;51.564;-1.838;2023-03-17T05:50:35;6.03;;;0.90;;
55879;SDS011;41802;51.564;-1.838;2023-03-17T05:53:02;11.37;;;1.33;;
55879;SDS011;41802;51.564;-1.838;2023-03-17T05:55:30;8.60;;;1.42;;
55879;SDS011;41802;51.564;-1.838;2023-03-17T05:57:59;5.88;;;1.40;;
55879;SDS011;41802;51.564;-1.838;2023-03-17T06:00:29;8.50;;;1.33;;
55879;SDS011;41802;51.564;-1.838;2023-03-17T06:02:57;6.10;;;1.02;;
55879;SDS011;41802;51.564;-1.838;2023-03-17T06:05:25;6.17;;;1.13;;
55879;SDS011;41802;51.564;-1.838;2023-03-17T06:08:15;7.45;;;0.98;;
55879;SDS011;41802;51.564;-1.838;2023-03-17T06:10:45;7.47;;;1.48;;
55879;SDS011;41802;51.564;-1.838;2023-03-17T06:13:13;8.20;;;1.52;;
55879;SDS011;41802;51.564;-1.838;2023-03-17T06:15:41;7.10;;;1.40;;
55879;SDS011;41802;51.564;-1.838;2023-03-17T06:18:09;6.97;;;1.27;;
55879;SDS011;41802;51.564;-1.838;2023-03-17T06:20:37;8.80;;;1.58;;
55879;SDS011;41802;51.564;-1.838;2023-03-17T06:23:04;9.20;;;1.80;;
55879;SDS011;41802;51.564;-1.838;2023-03-17T06:25:35;7.03;;;1.40;;
55879;SDS011;41802;51.564;-1.838;2023-03-17T06:28:04;5.07;;;1.20;;
55879;SDS011;41802;51.564;-1.838;2023-03-17T06:30:32;6.03;;;1.50;;
55879;SDS011;41802;51.564;-1.838;2023-03-17T06:33:01;5.95;;;1.33;;
55879;SDS011;41802;51.564;-1.838;2023-03-17T06:35:30;10.18;;;1.10;;
55879;SDS011;41802;51.564;-1.838;2023-03-17T06:37:58;7.75;;;1.40;;
55879;SDS011;41802;51.564;-1.838;2023-03-17T06:40:26;9.93;;;1.98;;
55879;SDS011;41802;51.564;-1.838;2023-03-17T06:42:55;8.83;;;1.63;;
55879;SDS011;41802;51.564;-1.838;2023-03-17T06:45:22;9.43;;;1.50;;
55879;SDS011;41802;51.564;-1.838;2023-03-17T06:47:50;7.75;;;1.63;;
55879;SDS011;41802;51.564;-1.838;2023-03-17T06:50:18;7.03;;;1.25;;
55879;SDS011;41802;51.564;-1.838;2023-03-17T06:52:48;11.40;;;1.63;;
55879;SDS011;41802;51.564;-1.838;2023-03-17T06:55:16;9.50;;;1.43;;
55879;SDS011;41802;51.564;-1.838;2023-03-17T06:57:45;11.13;;;2.47;;
55879;SDS011;41802;51.564;-1.838;2023-03-17T07:00:18;12.80;;;2.20;;
55879;SDS011;41802;51.564;-1.838;2023-03-17T07:02:46;9.88;;;1.85;;
55879;SDS011;41802;51.564;-1.838;2023-03-17T07:05:14;12.20;;;2.50;;
55879;SDS011;41802;51.564;-1.838;2023-03-17T07:07:42;13.23;;;2.30;;
55879;SDS011;41802;51.564;-1.838;2023-03-17T07:10:10;9.43;;;2.45;;
55879;SDS011;41802;51.564;-1.838;2023-03-17T07:12:39;11.98;;;2.65;;
55879;SDS011;41802;51.564;-1.838;2023-03-17T07:15:07;11.68;;;1.95;;
55879;SDS011;41802;51.564;-1.838;2023-03-17T07:17:37;9.23;;;2.97;;
55879;SDS011;41802;51.564;-1.838;2023-03-17T07:20:05;9.60;;;3.23;;
55879;SDS011;41802;51.564;-1.838;2023-03-17T07:22:33;8.30;;;2.58;;
55879;SDS011;41802;51.564;-1.838;2023-03-17T07:25:00;12.07;;;2.85;;
55879;SDS011;41802;51.564;-1.838;2023-03-17T07:27:28;12.43;;;2.65;;
55879;SDS011;41802;51.564;-1.838;2023-03-17T07:29:56;7.57;;;2.20;;
55879;SDS011;41802;51.564;-1.838;2023-03-17T07:32:27;10.03;;;2.90;;
55879;SDS011;41802;51.564;-1.838;2023-03-17T07:34:56;12.68;;;3.13;;
55879;SDS011;41802;51.564;-1.838;2023-03-17T07:37:24;13.52;;;3.08;;
55879;SDS011;41802;51.564;-1.838;2023-03-17T07:39:52;13.77;;;3.28;;
55879;SDS011;41802;51.564;-1.838;2023-03-17T07:42:20;11.75;;;2.75;;
55879;SDS011;41802;51.564;-1.838;2023-03-17T07:44:47;12.03;;;3.30;;
55879;SDS011;41802;51.564;-1.838;2023-03-17T07:47:18;12.85;;;2.78;;
55879;SDS011;41802;51.564;-1.838;2023-03-17T07:49:45;13.32;;;2.72;;
55879;SDS011;41802;51.564;-1.838;2023-03-17T07:52:15;8.85;;;2.40;;
55879;SDS011;41802;51.564;-1.838;2023-03-17T07:54:42;6.30;;;2.13;;
55879;SDS011;41802;51.564;-1.838;2023-03-17T07:57:10;10.67;;;2.77;;
55879;SDS011;41802;51.564;-1.838;2023-03-17T07:59:38;11.57;;;3.10;;
55879;SDS011;41802;51.564;-1.838;2023-03-17T08:02:09;16.98;;;3.35;;
55879;SDS011;41802;51.564;-1.838;2023-03-17T08:04:37;9.65;;;3.00;;
55879;SDS011;41802;51.564;-1.838;2023-03-17T08:07:05;11.35;;;3.00;;
55879;SDS011;41802;51.564;-1.838;2023-03-17T08:09:35;9.13;;;3.37;;
55879;SDS011;41802;51.564;-1.838;2023-03-17T08:12:03;12.85;;;2.63;;
55879;SDS011;41802;51.564;-1.838;2023-03-17T08:14:31;8.93;;;2.80;;
55879;SDS011;41802;51.564;-1.838;2023-03-17T08:16:58;10.82;;;2.97;;
55879;SDS011;41802;51.564;-1.838;2023-03-17T08:19:26;9.88;;;2.63;;
55879;SDS011;41802;51.564;-1.838;2023-03-17T08:21:54;10.13;;;2.70;;
55879;SDS011;41802;51.564;-1.838;2023-03-17T08:24:21;11.25;;;2.63;;
55879;SDS011;41802;51.564;-1.838;2023-03-17T08:26:50;8.35;;;2.05;;
55879;SDS011;41802;51.564;-1.838;2023-03-17T08:29:18;9.40;;;2.42;;
55879;SDS011;41802;51.564;-1.838;2023-03-17T08:31:51;11.38;;;3.10;;
55879;SDS011;41802;51.564;-1.838;2023-03-17T08:34:20;8.53;;;2.47;;
55879;SDS011;41802;51.564;-1.838;2023-03-17T08:36:49;8.65;;;2.30;;
55879;SDS011;41802;51.564;-1.838;2023-03-17T08:39:17;7.47;;;2.33;;
55879;SDS011;41802;51.564;-1.838;2023-03-17T08:41:45;12.02;;;3.00;;
55879;SDS011;41802;51.564;-1.838;2023-03-17T08:44:14;9.65;;;2.72;;
55879;SDS011;41802;51.564;-1.838;2023-03-17T08:46:42;11.73;;;2.97;;
55879;SDS011;41802;51.564;-1.838;2023-03-17T08:49:10;11.52;;;2.97;;
55879;SDS011;41802;51.564;-1.838;2023-03-17T08:51:39;12.07;;;3.13;;
55879;SDS011;41802;51.564;-1.838;2023-03-17T08:54:07;9.25;;;2.72;;
55879;SDS011;41802;51.564;-1.838;2023-03-17T08:56:35;9.00;;;2.78;;
55879;SDS011;41802;51.564;-1.838;2023-03-17T08:59:03;13.43;;;2.90;;
55879;SDS011;41802;51.564;-1.838;2023-03-17T09:01:33;14.30;;;3.72;;
55879;SDS011;41802;51.564;-1.838;2023-03-17T09:04:19;11.32;;;2.68;;
55879;SDS011;41802;51.564;-1.838;2023-03-17T09:06:48;12.52;;;2.65;;
55879;SDS011;41802;51.564;-1.838;2023-03-17T09:09:29;9.48;;;2.53;;
55879;SDS011;41802;51.564;-1.838;2023-03-17T09:11:57;12.70;;;2.53;;
55879;SDS011;41802;51.564;-1.838;2023-03-17T09:14:25;10.57;;;2.77;;
55879;SDS011;41802;51.564;-1.838;2023-03-17T09:16:54;9.45;;;2.53;;
55879;SDS011;41802;51.564;-1.838;2023-03-17T09:19:22;12.05;;;2.75;;
55879;SDS011;41802;51.564;-1.838;2023-03-17T09:21:50;8.32;;;2.53;;
55879;SDS011;41802;51.564;-1.838;2023-03-17T09:24:18;12.93;;;3.63;;
55879;SDS011;41802;51.564;-1.838;2023-03-17T09:26:45;9.03;;;2.60;;
55879;SDS011;41802;51.564;-1.838;2023-03-17T09:29:14;8.95;;;2.90;;
55879;SDS011;41802;51.564;-1.838;2023-03-17T09:31:42;7.70;;;2.20;;
55879;SDS011;41802;51.564;-1.838;2023-03-17T09:34:11;8.30;;;2.15;;
55879;SDS011;41802;51.564;-1.838;2023-03-17T09:36:38;9.73;;;2.53;;
55879;SDS011;41802;51.564;-1.838;2023-03-17T09:39:06;14.70;;;2.37;;
55879;SDS011;41802;51.564;-1.838;2023-03-17T09:41:41;10.18;;;2.10;;
55879;SDS011;41802;51.564;-1.838;2023-03-17T09:44:14;8.23;;;2.28;;
55879;SDS011;41802;51.564;-1.838;2023-03-17T09:46:47;8.25;;;2.13;;
55879;SDS011;41802;51.564;-1.838;2023-03-17T09:49:17;8.68;;;1.88;;
55879;SDS011;41802;51.564;-1.838;2023-03-17T09:51:46;8.43;;;2.27;;
55879;SDS011;41802;51.564;-1.838;2023-03-17T09:54:15;8.32;;;1.60;;
55879;SDS011;41802;51.564;-1.838;2023-03-17T09:56:46;10.20;;;2.40;;
55879;SDS011;41802;51.564;-1.838;2023-03-17T09:59:21;6.38;;;1.50;;
55879;SDS011;41802;51.564;-1.838;2023-03-17T10:01:54;7.88;;;1.60;;
55879;SDS011;41802;51.564;-1.838;2023-03-17T10:04:23;8.00;;;1.53;;
55879;SDS011;41802;51.564;-1.838;2023-03-17T10:06:51;5.43;;;1.60;;
55879;SDS011;41802;51.564;-1.838;2023-03-17T10:09:26;8.38;;;1.33;;
55879;SDS011;41802;51.564;-1.838;2023-03-17T10:12:00;7.60;;;1.67;;
55879;SDS011;41802;51.564;-1.838;2023-03-17T10:14:32;6.00;;;1.48;;
55879;SDS011;41802;51.564;-1.838;2023-03-17T10:17:04;7.93;;;1.40;;
55879;SDS011;41802;51.564;-1.838;2023-03-17T10:19:39;6.30;;;1.40;;
55879;SDS011;41802;51.564;-1.838;2023-03-17T10:22:09;9.48;;;1.50;;
55879;SDS011;41802;51.564;-1.838;2023-03-17T10:24:42;6.65;;;1.40;;
55879;SDS011;41802;51.564;-1.838;2023-03-17T10:27:13;5.88;;;1.35;;
55879;SDS011;41802;51.564;-1.838;2023-03-17T10:29:45;7.83;;;1.57;;
55879;SDS011;41802;51.564;-1.838;2023-03-17T10:32:14;6.32;;;1.15;;
55879;SDS011;41802;51.564;-1.838;2023-03-17T10:34:43;9.77;;;1.88;;
55879;SDS011;41802;51.564;-1.838;2023-03-17T10:37:16;9.10;;;1.50;;
55879;SDS011;41802;51.564;-1.838;2023-03-17T10:39:45;7.97;;;1.30;;
55879;SDS011;41802;51.564;-1.838;2023-03-17T10:42:18;10.53;;;1.90;;
55879;SDS011;41802;51.564;-1.838;2023-03-17T10:44:49;9.30;;;1.73;;
55879;SDS011;41802;51.564;-1.838;2023-03-17T10:47:22;6.70;;;1.55;;
55879;SDS011;41802;51.564;-1.838;2023-03-17T10:49:51;7.68;;;1.08;;
55879;SDS011;41802;51.564;-1.838;2023-03-17T10:52:21;7.55;;;1.13;;
55879;SDS011;41802;51.564;-1.838;2023-03-17T10:54:49;9.13;;;1.50;;
55879;SDS011;41802;51.564;-1.838;2023-03-17T10:57:18;9.25;;;1.95;;
55879;SDS011;41802;51.564;-1.838;2023-03-17T10:59:48;5.70;;;0.88;;
55879;SDS011;41802;51.564;-1.838;2023-03-17T11:02:20;7.93;;;2.33;;
55879;SDS011;41802;51.564;-1.838;2023-03-17T11:04:54;4.47;;;0.90;;
55879;SDS011;41802;51.564;-1.838;2023-03-17T11:07:32;6.57;;;0.60;;
55879;SDS011;41802;51.564;-1.838;2023-03-17T11:10:01;6.35;;;1.30;;
55879;SDS011;41802;51.564;-1.838;2023-03-17T11:12:33;7.70;;;1.10;;
55879;SDS011;41802;51.564;-1.838;2023-03-17T11:15:03;3.75;;;0.50;;
55879;SDS011;41802;51.564;-1.838;2023-03-17T11:17:42;6.65;;;1.00;;
55879;SDS011;41802;51.564;-1.838;2023-03-17T11:20:29;5.20;;;1.33;;
55879;SDS011;41802;51.564;-1.838;2023-03-17T11:23:00;5.80;;;0.70;;
55879;SDS011;41802;51.564;-1.838;2023-03-17T11:25:30;4.85;;;0.90;;
55879;SDS011;41802;51.564;-1.838;2023-03-17T11:27:59;3.28;;;0.85;;
55879;SDS011;41802;51.564;-1.838;2023-03-17T11:30:34;9.10;;;1.60;;
55879;SDS011;41802;51.564;-1.838;2023-03-17T11:33:03;5.50;;;1.53;;
55879;SDS011;41802;51.564;-1.838;2023-03-17T11:35:37;10.50;;;2.13;;
55879;SDS011;41802;51.564;-1.838;2023-03-17T11:38:19;5.95;;;1.13;;
55879;SDS011;41802;51.564;-1.838;2023-03-17T11:43:36;9.85;;;1.70;;
55879;SDS011;41802;51.564;-1.838;2023-03-17T11:46:10;5.70;;;1.20;;
55879;SDS011;41802;51.564;-1.838;2023-03-17T11:48:42;5.55;;;1.08;;
55879;SDS011;41802;51.564;-1.838;2023-03-17T11:51:15;5.43;;;0.93;;
55879;SDS011;41802;51.564;-1.838;2023-03-17T11:56:34;4.28;;;0.98;;
55879;SDS011;41802;51.564;-1.838;2023-03-17T11:59:05;5.37;;;0.80;;
55879;SDS011;41802;51.564;-1.838;2023-03-17T12:01:40;5.63;;;0.82;;
55879;SDS011;41802;51.564;-1.838;2023-03-17T12:04:13;4.57;;;0.70;;
55879;SDS011;41802;51.564;-1.838;2023-03-17T12:06:45;4.72;;;0.50;;
55879;SDS011;41802;51.564;-1.838;2023-03-17T12:09:18;5.75;;;0.98;;
55879;SDS011;41802;51.564;-1.838;2023-03-17T12:11:47;3.37;;;0.63;;
55879;SDS011;41802;51.564;-1.838;2023-03-17T12:14:19;6.03;;;0.70;;
55879;SDS011;41802;51.564;-1.838;2023-03-17T12:16:51;4.95;;;0.88;;
55879;SDS011;41802;51.564;-1.838;2023-03-17T12:19:21;3.85;;;0.60;;
55879;SDS011;41802;51.564;-1.838;2023-03-17T12:21:53;3.75;;;0.57;;
55879;SDS011;41802;51.564;-1.838;2023-03-17T12:24:24;4.60;;;1.00;;
55879;SDS011;41802;51.564;-1.838;2023-03-17T12:26:54;5.03;;;1.10;;
55879;SDS011;41802;51.564;-1.838;2023-03-17T12:29:24;3.55;;;0.57;;
55879;SDS011;41802;51.564;-1.838;2023-03-17T12:31:57;5.18;;;0.70;;
55879;SDS011;41802;51.564;-1.838;2023-03-17T12:34:29;5.47;;;0.90;;
55879;SDS011;41802;51.564;-1.838;2023-03-17T12:37:00;3.50;;;0.90;;
55879;SDS011;41802;51.564;-1.838;2023-03-17T12:39:33;4.18;;;0.90;;
55879;SDS011;41802;51.564;-1.838;2023-03-17T12:42:06;6.05;;;0.65;;
55879;SDS011;41802;51.564;-1.838;2023-03-17T12:44:42;4.68;;;0.65;;
55879;SDS011;41802;51.564;-1.838;2023-03-17T12:47:20;6.53;;;0.67;;
55879;SDS011;41802;51.564;-1.838;2023-03-17T12:49:55;4.10;;;0.65;;
55879;SDS011;41802;51.564;-1.838;2023-03-17T12:55:24;7.20;;;1.10;;
55879;SDS011;41802;51.564;-1.838;2023-03-17T12:57:59;5.03;;;0.70;;
55879;SDS011;41802;51.564;-1.838;2023-03-17T13:00:30;5.90;;;0.90;;
55879;SDS011;41802;51.564;-1.838;2023-03-17T13:03:11;6.00;;;1.02;;
55879;SDS011;41802;51.564;-1.838;2023-03-17T13:05:44;2.47;;;0.50;;
55879;SDS011;41802;51.564;-1.838;2023-03-17T13:08:13;5.55;;;0.70;;
55879;SDS011;41802;51.564;-1.838;2023-03-17T13:10:47;5.10;;;0.70;;
55879;SDS011;41802;51.564;-1.838;2023-03-17T13:13:32;7.13;;;0.63;;
55879;SDS011;41802;51.564;-1.838;2023-03-17T13:16:02;2.70;;;0.40;;
55879;SDS011;41802;51.564;-1.838;2023-03-17T13:21:17;4.57;;;0.75;;
55879;SDS011;41802;51.564;-1.838;2023-03-17T13:23:46;7.73;;;1.10;;
55879;SDS011;41802;51.564;-1.838;2023-03-17T13:26:21;4.15;;;0.68;;
55879;SDS011;41802;51.564;-1.838;2023-03-17T13:29:21;4.53;;;0.93;;
55879;SDS011;41802;51.564;-1.838;2023-03-17T13:31:49;3.88;;;0.52;;
55879;SDS011;41802;51.564;-1.838;2023-03-17T13:34:18;4.35;;;1.08;;
55879;SDS011;41802;51.564;-1.838;2023-03-17T13:36:54;4.40;;;0.87;;
55879;SDS011;41802;51.564;-1.838;2023-03-17T13:39:33;4.75;;;0.65;;
55879;SDS011;41802;51.564;-1.838;2023-03-17T13:44:56;4.60;;;0.77;;
55879;SDS011;41802;51.564;-1.838;2023-03-17T13:47:31;3.75;;;0.50;;
55879;SDS011;41802;51.564;-1.838;2023-03-17T13:50:00;6.10;;;0.90;;
55879;SDS011;41802;51.564;-1.838;2023-03-17T13:52:30;5.13;;;0.50;;
55879;SDS011;41802;51.564;-1.838;2023-03-17T13:55:00;5.75;;;0.60;;
55879;SDS011;41802;51.564;-1.838;2023-03-17T13:57:29;2.83;;;0.40;;
55879;SDS011;41802;51.564;-1.838;2023-03-17T14:00:03;7.75;;;0.90;;
55879;SDS011;41802;51.564;-1.838;2023-03-17T14:02:40;3.20;;;0.60;;
55879;SDS011;41802;51.564;-1.838;2023-03-17T14:05:16;3.53;;;0.70;;
55879;SDS011;41802;51.564;-1.838;2023-03-17T14:07:47;4.72;;;0.70;;
55879;SDS011;41802;51.564;-1.838;2023-03-17T14:10:17;5.22;;;0.55;;
55879;SDS011;41802;51.564;-1.838;2023-03-17T14:12:47;4.85;;;0.60;;
55879;SDS011;41802;51.564;-1.838;2023-03-17T14:15:19;2.30;;;0.40;;
55879;SDS011;41802;51.564;-1.838;2023-03-17T14:17:49;3.28;;;0.60;;
55879;SDS011;41802;51.564;-1.838;2023-03-17T14:20:19;4.65;;;0.50;;
55879;SDS011;41802;51.564;-1.838;2023-03-17T14:22:51;4.63;;;0.70;;
55879;SDS011;41802;51.564;-1.838;2023-03-17T14:25:20;2.45;;;0.60;;
55879;SDS011;41802;51.564;-1.838;2023-03-17T14:27:49;4.70;;;1.00;;
55879;SDS011;41802;51.564;-1.838;2023-03-17T14:30:19;3.10;;;0.73;;
55879;SDS011;41802;51.564;-1.838;2023-03-17T14:32:49;2.53;;;0.40;;
55879;SDS011;41802;51.564;-1.838;2023-03-17T14:35:17;3.72;;;0.98;;
55879;SDS011;41802;51.564;-1.838;2023-03-17T14:37:51;4.18;;;0.70;;
55879;SDS011;41802;51.564;-1.838;2023-03-17T14:40:20;4.93;;;0.70;;
55879;SDS011;41802;51.564;-1.838;2023-03-17T14:42:48;5.35;;;0.82;;
55879;SDS011;41802;51.564;-1.838;2023-03-17T14:45:20;3.75;;;0.65;;
55879;SDS011;41802;51.564;-1.838;2023-03-17T14:47:47;3.97;;;0.50;;
55879;SDS011;41802;51.564;-1.838;2023-03-17T14:50:16;4.32;;;0.70;;
55879;SDS011;41802;51.564;-1.838;2023-03-17T14:52:44;4.63;;;0.67;;
55879;SDS011;41802;51.564;-1.838;2023-03-17T14:55:12;3.05;;;0.40;;
55879;SDS011;41802;51.564;-1.838;2023-03-17T14:57:41;4.70;;;0.60;;
55879;SDS011;41802;51.564;-1.838;2023-03-17T15:00:18;4.38;;;0.70;;
55879;SDS011;41802;51.564;-1.838;2023-03-17T15:02:54;8.27;;;1.20;;
55879;SDS011;41802;51.564;-1.838;2023-03-17T15:05:23;9.07;;;0.90;;
55879;SDS011;41802;51.564;-1.838;2023-03-17T15:07:51;7.88;;;1.00;;